Nicholas L — WDE7436 — position and weather

sailwx.info

Track history (hours):
 
Tides and Currents Weather Stations Pressure Air Temp Water Temp Dewpoint Dewpoint Depression Visibility Wind Speed Wind Dir Waves Ship Positions

Nicholas L

Owner: SO. CAL. SHIP SERVICES, TERMINAL ISLAND, CA. More information available from US FCC via Universal Licensing System and Coast Guard Vessel Documentation Center.

Last reported at 2018-Jan-19 02:28 UTC. Time now 2018-Jan-20 09:03 UTC.
Position N 33°43' W 118°15'.

Length 31 m; draft 2.4 m.

Type: Port tender. MMSI: 367393270.

Date/timePositionNaut miles runAvg speedWind from/ knotsBaromVisibWave heightAir tempDewpointWater temp
2018-Jan-19 02:28N 33°43' W 118°15'816.3
2018-Jan-19 01:59N 33°36' W 118°09'3 6.6
2018-Jan-19 01:30N 33°34' W 118°07'13 4.1
2018-Jan-18 22:24N 33°44' W 118°16'913.7
2018-Jan-18 21:45N 33°37' W 118°10'411.8
2018-Jan-18 21:26N 33°34' W 118°07'512.0
2018-Jan-18 21:00N 33°38' W 118°11'5 1.4
2018-Jan-18 17:20N 33°42' W 118°14'817.1
2018-Jan-18 16:53N 33°36' W 118°09'1 2.2
2018-Jan-18 16:21N 33°35' W 118°08'11 6.6
2018-Jan-18 14:44N 33°43' W 118°16'417.0
2018-Jan-18 14:29N 33°40' W 118°13'815.4
2018-Jan-18 13:59N 33°34' W 118°07'712.4
2018-Jan-18 13:27N 33°39' W 118°12'1 0.1
2018-Jan-18 02:10N 33°39' W 118°11'316.7
2018-Jan-18 02:00N 33°37' W 118°09'3 6.5
2018-Jan-18 01:30N 33°34' W 118°07'  
2018-Jan-12 02:04N 33°38' W 118°11'116.5
2018-Jan-12 01:59N 33°37' W 118°10'3 5.3
2018-Jan-12 01:27N 33°35' W 118°08'510.8
2018-Jan-12 00:59N 33°39' W 118°11'0 0.0
2018-Jan-09 21:07N 33°39' W 118°11'  
Track history (hours):
 
Tides and Currents Weather Stations Pressure Air Temp Water Temp Dewpoint Dewpoint Depression Visibility Wind Speed Wind Dir Waves Ship Positions

Nicholas L

Owner: SO. CAL. SHIP SERVICES, TERMINAL ISLAND, CA. More information available from US FCC via Universal Licensing System and Coast Guard Vessel Documentation Center.

Last reported at 2018-Jan-19 02:28 UTC. Time now 2018-Jan-20 09:03 UTC.
Position N 33°43' W 118°15'.

Length 31 m; draft 2.4 m.

Type: Port tender. MMSI: 367393270.

Date/timePositionNaut miles runAvg speedWind from/ knotsBaromVisibWave heightAir tempDewpointWater temp
2018-Jan-19 02:28N 33°43' W 118°15'816.3
2018-Jan-19 01:59N 33°36' W 118°09'3 6.6
2018-Jan-19 01:30N 33°34' W 118°07'13 4.1
2018-Jan-18 22:24N 33°44' W 118°16'913.7
2018-Jan-18 21:45N 33°37' W 118°10'411.8
2018-Jan-18 21:26N 33°34' W 118°07'512.0
2018-Jan-18 21:00N 33°38' W 118°11'5 1.4
2018-Jan-18 17:20N 33°42' W 118°14'817.1
2018-Jan-18 16:53N 33°36' W 118°09'1 2.2
2018-Jan-18 16:21N 33°35' W 118°08'11 6.6
2018-Jan-18 14:44N 33°43' W 118°16'417.0
2018-Jan-18 14:29N 33°40' W 118°13'815.4
2018-Jan-18 13:59N 33°34' W 118°07'712.4
2018-Jan-18 13:27N 33°39' W 118°12'1 0.1
2018-Jan-18 02:10N 33°39' W 118°11'316.7
2018-Jan-18 02:00N 33°37' W 118°09'3 6.5
2018-Jan-18 01:30N 33°34' W 118°07'  
2018-Jan-12 02:04N 33°38' W 118°11'116.5
2018-Jan-12 01:59N 33°37' W 118°10'3 5.3
2018-Jan-12 01:27N 33°35' W 118°08'510.8
2018-Jan-12 00:59N 33°39' W 118°11'0 0.0
2018-Jan-09 21:07N 33°39' W 118°11'  

Dump ship's entire track history